sensor_id;sensor_type;location;lat;lon;timestamp;P1;durP1;ratioP1;P2;durP2;ratioP2
70157;SDS011;57524;48.312;7.938;2022-07-10T00:00:54;7.35;;;4.43;;
70157;SDS011;57524;48.312;7.938;2022-07-10T00:03:21;5.45;;;4.30;;
70157;SDS011;57524;48.312;7.938;2022-07-10T00:05:48;6.80;;;4.20;;
70157;SDS011;57524;48.312;7.938;2022-07-10T00:08:16;6.50;;;4.13;;
70157;SDS011;57524;48.312;7.938;2022-07-10T00:10:43;5.97;;;4.40;;
70157;SDS011;57524;48.312;7.938;2022-07-10T00:13:09;7.22;;;4.32;;
70157;SDS011;57524;48.312;7.938;2022-07-10T00:15:36;8.55;;;4.63;;
70157;SDS011;57524;48.312;7.938;2022-07-10T00:18:03;8.38;;;4.63;;
70157;SDS011;57524;48.312;7.938;2022-07-10T00:20:29;7.28;;;4.70;;
70157;SDS011;57524;48.312;7.938;2022-07-10T00:22:56;8.53;;;4.40;;
70157;SDS011;57524;48.312;7.938;2022-07-10T00:25:24;7.47;;;4.60;;
70157;SDS011;57524;48.312;7.938;2022-07-10T00:27:51;6.38;;;4.15;;
70157;SDS011;57524;48.312;7.938;2022-07-10T00:30:18;7.28;;;4.15;;
70157;SDS011;57524;48.312;7.938;2022-07-10T00:32:44;6.43;;;4.45;;
70157;SDS011;57524;48.312;7.938;2022-07-10T00:35:11;6.80;;;4.20;;
70157;SDS011;57524;48.312;7.938;2022-07-10T00:37:38;6.80;;;4.32;;
70157;SDS011;57524;48.312;7.938;2022-07-10T00:40:05;6.38;;;4.40;;
70157;SDS011;57524;48.312;7.938;2022-07-10T00:42:34;7.10;;;3.90;;
70157;SDS011;57524;48.312;7.938;2022-07-10T00:45:00;5.90;;;4.35;;
70157;SDS011;57524;48.312;7.938;2022-07-10T00:47:27;6.30;;;4.40;;
70157;SDS011;57524;48.312;7.938;2022-07-10T00:49:54;6.53;;;4.40;;
70157;SDS011;57524;48.312;7.938;2022-07-10T00:52:20;6.40;;;4.55;;
70157;SDS011;57524;48.312;7.938;2022-07-10T00:54:48;7.00;;;5.00;;
70157;SDS011;57524;48.312;7.938;2022-07-10T00:57:17;6.60;;;4.80;;
70157;SDS011;57524;48.312;7.938;2022-07-10T00:59:46;7.17;;;4.70;;
70157;SDS011;57524;48.312;7.938;2022-07-10T01:02:15;7.72;;;4.90;;
70157;SDS011;57524;48.312;7.938;2022-07-10T01:04:42;6.88;;;4.90;;
70157;SDS011;57524;48.312;7.938;2022-07-10T01:07:09;7.13;;;5.07;;
70157;SDS011;57524;48.312;7.938;2022-07-10T01:09:36;8.55;;;4.82;;
70157;SDS011;57524;48.312;7.938;2022-07-10T01:12:03;10.50;;;4.90;;
70157;SDS011;57524;48.312;7.938;2022-07-10T01:14:31;7.78;;;4.60;;
70157;SDS011;57524;48.312;7.938;2022-07-10T01:16:59;6.40;;;4.53;;
70157;SDS011;57524;48.312;7.938;2022-07-10T01:19:26;7.80;;;4.97;;
70157;SDS011;57524;48.312;7.938;2022-07-10T01:21:54;8.60;;;4.50;;
70157;SDS011;57524;48.312;7.938;2022-07-10T01:24:21;6.57;;;4.53;;
70157;SDS011;57524;48.312;7.938;2022-07-10T01:26:47;5.70;;;4.20;;
70157;SDS011;57524;48.312;7.938;2022-07-10T01:29:14;6.32;;;4.28;;
70157;SDS011;57524;48.312;7.938;2022-07-10T01:31:41;6.40;;;4.30;;
70157;SDS011;57524;48.312;7.938;2022-07-10T01:34:08;6.45;;;4.70;;
70157;SDS011;57524;48.312;7.938;2022-07-10T01:36:36;6.90;;;4.63;;
70157;SDS011;57524;48.312;7.938;2022-07-10T01:39:05;6.75;;;4.53;;
70157;SDS011;57524;48.312;7.938;2022-07-10T01:41:32;6.85;;;4.60;;
70157;SDS011;57524;48.312;7.938;2022-07-10T01:43:59;7.50;;;4.60;;
70157;SDS011;57524;48.312;7.938;2022-07-10T01:46:26;7.13;;;4.75;;
70157;SDS011;57524;48.312;7.938;2022-07-10T01:48:52;7.77;;;4.43;;
70157;SDS011;57524;48.312;7.938;2022-07-10T01:51:19;7.40;;;4.35;;
70157;SDS011;57524;48.312;7.938;2022-07-10T01:53:46;7.53;;;4.35;;
70157;SDS011;57524;48.312;7.938;2022-07-10T01:56:15;8.52;;;4.60;;
70157;SDS011;57524;48.312;7.938;2022-07-10T01:58:42;6.90;;;4.80;;
70157;SDS011;57524;48.312;7.938;2022-07-10T02:01:09;6.50;;;4.50;;
70157;SDS011;57524;48.312;7.938;2022-07-10T02:03:37;6.88;;;4.57;;
70157;SDS011;57524;48.312;7.938;2022-07-10T02:06:21;6.15;;;4.35;;
70157;SDS011;57524;48.312;7.938;2022-07-10T02:08:48;7.65;;;4.43;;
70157;SDS011;57524;48.312;7.938;2022-07-10T02:11:16;7.18;;;4.60;;
70157;SDS011;57524;48.312;7.938;2022-07-10T02:13:43;6.83;;;4.30;;
70157;SDS011;57524;48.312;7.938;2022-07-10T02:16:09;6.55;;;4.07;;
70157;SDS011;57524;48.312;7.938;2022-07-10T02:18:36;6.00;;;4.20;;
70157;SDS011;57524;48.312;7.938;2022-07-10T02:21:04;6.95;;;4.18;;
70157;SDS011;57524;48.312;7.938;2022-07-10T02:23:31;7.25;;;4.20;;
70157;SDS011;57524;48.312;7.938;2022-07-10T02:25:57;7.00;;;4.00;;
70157;SDS011;57524;48.312;7.938;2022-07-10T02:28:25;6.60;;;3.95;;
70157;SDS011;57524;48.312;7.938;2022-07-10T02:30:52;8.82;;;4.25;;
70157;SDS011;57524;48.312;7.938;2022-07-10T02:33:18;7.45;;;4.25;;
70157;SDS011;57524;48.312;7.938;2022-07-10T02:35:45;6.78;;;4.22;;
70157;SDS011;57524;48.312;7.938;2022-07-10T02:38:12;6.13;;;4.20;;
70157;SDS011;57524;48.312;7.938;2022-07-10T02:40:40;6.45;;;4.28;;
70157;SDS011;57524;48.312;7.938;2022-07-10T02:43:06;6.53;;;4.20;;
70157;SDS011;57524;48.312;7.938;2022-07-10T02:45:34;6.78;;;4.18;;
70157;SDS011;57524;48.312;7.938;2022-07-10T02:48:01;6.53;;;4.00;;
70157;SDS011;57524;48.312;7.938;2022-07-10T02:50:27;6.57;;;4.07;;
70157;SDS011;57524;48.312;7.938;2022-07-10T02:52:54;6.15;;;4.15;;
70157;SDS011;57524;48.312;7.938;2022-07-10T02:55:21;5.72;;;3.85;;
70157;SDS011;57524;48.312;7.938;2022-07-10T02:57:47;5.85;;;3.97;;
70157;SDS011;57524;48.312;7.938;2022-07-10T03:00:14;7.35;;;4.60;;
70157;SDS011;57524;48.312;7.938;2022-07-10T03:02:42;6.50;;;4.00;;
70157;SDS011;57524;48.312;7.938;2022-07-10T03:05:09;6.63;;;4.20;;
70157;SDS011;57524;48.312;7.938;2022-07-10T03:07:35;6.88;;;4.32;;
70157;SDS011;57524;48.312;7.938;2022-07-10T03:10:02;6.43;;;4.30;;
70157;SDS011;57524;48.312;7.938;2022-07-10T03:12:29;5.63;;;4.10;;
70157;SDS011;57524;48.312;7.938;2022-07-10T03:14:56;6.70;;;4.33;;
70157;SDS011;57524;48.312;7.938;2022-07-10T03:17:24;5.78;;;4.30;;
70157;SDS011;57524;48.312;7.938;2022-07-10T03:19:52;6.72;;;4.35;;
70157;SDS011;57524;48.312;7.938;2022-07-10T03:22:19;8.00;;;4.25;;
70157;SDS011;57524;48.312;7.938;2022-07-10T03:24:46;7.38;;;4.40;;
70157;SDS011;57524;48.312;7.938;2022-07-10T03:27:13;7.43;;;4.20;;
70157;SDS011;57524;48.312;7.938;2022-07-10T03:29:40;6.43;;;4.10;;
70157;SDS011;57524;48.312;7.938;2022-07-10T03:32:07;7.20;;;4.03;;
70157;SDS011;57524;48.312;7.938;2022-07-10T03:34:34;7.47;;;4.20;;
70157;SDS011;57524;48.312;7.938;2022-07-10T03:37:02;6.93;;;4.57;;
70157;SDS011;57524;48.312;7.938;2022-07-10T03:39:29;6.93;;;4.60;;
70157;SDS011;57524;48.312;7.938;2022-07-10T03:41:55;9.70;;;4.70;;
70157;SDS011;57524;48.312;7.938;2022-07-10T03:44:22;6.90;;;4.40;;
70157;SDS011;57524;48.312;7.938;2022-07-10T03:46:49;6.72;;;4.65;;
70157;SDS011;57524;48.312;7.938;2022-07-10T03:49:15;8.35;;;5.25;;
70157;SDS011;57524;48.312;7.938;2022-07-10T03:51:42;8.50;;;5.30;;
70157;SDS011;57524;48.312;7.938;2022-07-10T03:54:10;7.60;;;4.80;;
70157;SDS011;57524;48.312;7.938;2022-07-10T03:56:37;7.15;;;4.97;;
70157;SDS011;57524;48.312;7.938;2022-07-10T03:59:21;6.78;;;4.65;;
70157;SDS011;57524;48.312;7.938;2022-07-10T04:01:48;8.75;;;4.60;;
70157;SDS011;57524;48.312;7.938;2022-07-10T04:04:14;7.93;;;4.47;;
70157;SDS011;57524;48.312;7.938;2022-07-10T04:06:41;6.47;;;4.28;;
70157;SDS011;57524;48.312;7.938;2022-07-10T04:09:08;6.70;;;4.03;;
70157;SDS011;57524;48.312;7.938;2022-07-10T04:11:36;6.80;;;3.97;;
70157;SDS011;57524;48.312;7.938;2022-07-10T04:14:03;6.97;;;3.90;;
70157;SDS011;57524;48.312;7.938;2022-07-10T04:16:29;7.63;;;3.70;;
70157;SDS011;57524;48.312;7.938;2022-07-10T04:18:56;5.50;;;3.40;;
70157;SDS011;57524;48.312;7.938;2022-07-10T04:21:22;7.25;;;3.70;;
70157;SDS011;57524;48.312;7.938;2022-07-10T04:23:49;6.93;;;3.70;;
70157;SDS011;57524;48.312;7.938;2022-07-10T04:26:16;5.80;;;3.60;;
70157;SDS011;57524;48.312;7.938;2022-07-10T04:28:44;6.20;;;3.63;;
70157;SDS011;57524;48.312;7.938;2022-07-10T04:31:10;7.10;;;3.65;;
70157;SDS011;57524;48.312;7.938;2022-07-10T04:33:37;6.60;;;3.50;;
70157;SDS011;57524;48.312;7.938;2022-07-10T04:36:04;6.95;;;3.50;;
70157;SDS011;57524;48.312;7.938;2022-07-10T04:38:31;8.52;;;3.33;;
70157;SDS011;57524;48.312;7.938;2022-07-10T04:40:58;7.17;;;3.40;;
70157;SDS011;57524;48.312;7.938;2022-07-10T04:43:24;6.82;;;3.78;;
70157;SDS011;57524;48.312;7.938;2022-07-10T04:45:52;5.45;;;3.40;;
70157;SDS011;57524;48.312;7.938;2022-07-10T04:48:19;6.90;;;3.40;;
70157;SDS011;57524;48.312;7.938;2022-07-10T04:50:46;5.85;;;3.50;;
70157;SDS011;57524;48.312;7.938;2022-07-10T04:53:12;6.23;;;3.60;;
70157;SDS011;57524;48.312;7.938;2022-07-10T04:55:39;6.20;;;3.40;;
70157;SDS011;57524;48.312;7.938;2022-07-10T04:58:06;6.60;;;3.25;;
70157;SDS011;57524;48.312;7.938;2022-07-10T05:00:32;6.25;;;3.28;;
70157;SDS011;57524;48.312;7.938;2022-07-10T05:03:00;6.40;;;3.38;;
70157;SDS011;57524;48.312;7.938;2022-07-10T05:05:27;6.43;;;3.60;;
70157;SDS011;57524;48.312;7.938;2022-07-10T05:07:54;8.80;;;3.53;;
70157;SDS011;57524;48.312;7.938;2022-07-10T05:10:20;7.85;;;3.13;;
70157;SDS011;57524;48.312;7.938;2022-07-10T05:12:47;5.72;;;3.20;;
70157;SDS011;57524;48.312;7.938;2022-07-10T05:15:14;6.65;;;3.28;;
70157;SDS011;57524;48.312;7.938;2022-07-10T05:17:41;6.67;;;3.10;;
70157;SDS011;57524;48.312;7.938;2022-07-10T05:20:09;6.32;;;3.00;;
70157;SDS011;57524;48.312;7.938;2022-07-10T05:22:37;7.00;;;3.10;;
70157;SDS011;57524;48.312;7.938;2022-07-10T05:25:03;6.40;;;2.92;;
70157;SDS011;57524;48.312;7.938;2022-07-10T05:27:30;6.55;;;3.15;;
70157;SDS011;57524;48.312;7.938;2022-07-10T05:29:57;7.00;;;3.40;;
70157;SDS011;57524;48.312;7.938;2022-07-10T05:32:23;5.85;;;2.92;;
70157;SDS011;57524;48.312;7.938;2022-07-10T05:34:50;5.88;;;2.70;;
70157;SDS011;57524;48.312;7.938;2022-07-10T05:37:19;7.60;;;3.30;;
70157;SDS011;57524;48.312;7.938;2022-07-10T05:39:45;6.78;;;3.28;;
70157;SDS011;57524;48.312;7.938;2022-07-10T05:42:12;5.23;;;3.03;;
70157;SDS011;57524;48.312;7.938;2022-07-10T05:44:38;7.13;;;3.03;;
70157;SDS011;57524;48.312;7.938;2022-07-10T05:47:05;7.20;;;3.13;;
70157;SDS011;57524;48.312;7.938;2022-07-10T05:53:20;5.90;;;2.90;;
70157;SDS011;57524;48.312;7.938;2022-07-10T05:55:47;6.00;;;2.87;;
70157;SDS011;57524;48.312;7.938;2022-07-10T05:58:14;8.88;;;2.80;;
70157;SDS011;57524;48.312;7.938;2022-07-10T06:00:41;5.90;;;2.67;;
70157;SDS011;57524;48.312;7.938;2022-07-10T06:03:08;5.68;;;3.00;;
70157;SDS011;57524;48.312;7.938;2022-07-10T06:05:35;6.03;;;2.97;;
70157;SDS011;57524;48.312;7.938;2022-07-10T06:08:02;5.13;;;2.47;;
70157;SDS011;57524;48.312;7.938;2022-07-10T06:10:30;5.28;;;2.80;;
70157;SDS011;57524;48.312;7.938;2022-07-10T06:12:57;4.68;;;2.60;;
70157;SDS011;57524;48.312;7.938;2022-07-10T06:15:24;5.15;;;2.60;;
70157;SDS011;57524;48.312;7.938;2022-07-10T06:17:50;7.72;;;2.90;;
70157;SDS011;57524;48.312;7.938;2022-07-10T06:20:17;6.33;;;2.77;;
70157;SDS011;57524;48.312;7.938;2022-07-10T06:22:44;5.82;;;2.58;;
70157;SDS011;57524;48.312;7.938;2022-07-10T06:25:10;5.18;;;2.50;;
70157;SDS011;57524;48.312;7.938;2022-07-10T06:27:39;6.47;;;2.70;;
70157;SDS011;57524;48.312;7.938;2022-07-10T06:30:06;6.38;;;2.72;;
70157;SDS011;57524;48.312;7.938;2022-07-10T06:32:33;6.93;;;2.50;;
70157;SDS011;57524;48.312;7.938;2022-07-10T06:35:00;5.10;;;2.42;;
70157;SDS011;57524;48.312;7.938;2022-07-10T06:37:27;5.85;;;2.70;;
70157;SDS011;57524;48.312;7.938;2022-07-10T06:39:53;5.65;;;2.42;;
70157;SDS011;57524;48.312;7.938;2022-07-10T06:42:20;5.28;;;2.33;;
70157;SDS011;57524;48.312;7.938;2022-07-10T06:44:50;6.17;;;2.70;;
70157;SDS011;57524;48.312;7.938;2022-07-10T06:47:17;5.55;;;2.45;;
70157;SDS011;57524;48.312;7.938;2022-07-10T06:50:02;4.97;;;2.53;;
70157;SDS011;57524;48.312;7.938;2022-07-10T06:52:30;7.18;;;2.60;;
70157;SDS011;57524;48.312;7.938;2022-07-10T06:54:57;6.40;;;2.78;;
70157;SDS011;57524;48.312;7.938;2022-07-10T06:57:24;6.17;;;2.70;;
70157;SDS011;57524;48.312;7.938;2022-07-10T06:59:52;5.85;;;2.72;;
70157;SDS011;57524;48.312;7.938;2022-07-10T07:02:19;5.22;;;2.50;;
70157;SDS011;57524;48.312;7.938;2022-07-10T07:04:45;7.72;;;2.97;;
70157;SDS011;57524;48.312;7.938;2022-07-10T07:07:12;6.45;;;3.10;;
70157;SDS011;57524;48.312;7.938;2022-07-10T07:09:39;8.07;;;3.00;;
70157;SDS011;57524;48.312;7.938;2022-07-10T07:12:07;7.28;;;2.95;;
70157;SDS011;57524;48.312;7.938;2022-07-10T07:14:34;6.38;;;3.00;;
70157;SDS011;57524;48.312;7.938;2022-07-10T07:17:03;7.20;;;2.80;;
70157;SDS011;57524;48.312;7.938;2022-07-10T07:19:31;7.72;;;2.60;;
70157;SDS011;57524;48.312;7.938;2022-07-10T07:22:18;5.93;;;2.40;;
70157;SDS011;57524;48.312;7.938;2022-07-10T07:25:03;6.63;;;2.90;;
70157;SDS011;57524;48.312;7.938;2022-07-10T07:27:30;5.13;;;2.78;;
70157;SDS011;57524;48.312;7.938;2022-07-10T07:29:56;8.35;;;2.70;;
70157;SDS011;57524;48.312;7.938;2022-07-10T07:32:24;5.80;;;2.72;;
70157;SDS011;57524;48.312;7.938;2022-07-10T07:34:51;6.40;;;2.70;;
70157;SDS011;57524;48.312;7.938;2022-07-10T07:37:18;5.85;;;2.78;;
70157;SDS011;57524;48.312;7.938;2022-07-10T07:39:44;8.43;;;3.08;;
70157;SDS011;57524;48.312;7.938;2022-07-10T07:42:11;6.10;;;2.67;;
70157;SDS011;57524;48.312;7.938;2022-07-10T07:44:37;5.53;;;2.80;;
70157;SDS011;57524;48.312;7.938;2022-07-10T07:47:04;6.33;;;2.90;;
70157;SDS011;57524;48.312;7.938;2022-07-10T07:49:35;5.40;;;2.88;;
70157;SDS011;57524;48.312;7.938;2022-07-10T07:52:02;6.95;;;2.97;;
70157;SDS011;57524;48.312;7.938;2022-07-10T07:54:28;6.90;;;3.00;;
70157;SDS011;57524;48.312;7.938;2022-07-10T07:56:55;5.65;;;2.92;;
70157;SDS011;57524;48.312;7.938;2022-07-10T07:59:22;6.27;;;3.00;;
70157;SDS011;57524;48.312;7.938;2022-07-10T08:01:49;8.02;;;2.72;;
70157;SDS011;57524;48.312;7.938;2022-07-10T08:04:16;7.55;;;2.70;;
70157;SDS011;57524;48.312;7.938;2022-07-10T08:06:44;8.25;;;4.35;;
70157;SDS011;57524;48.312;7.938;2022-07-10T08:09:10;9.52;;;4.55;;
70157;SDS011;57524;48.312;7.938;2022-07-10T08:15:25;7.60;;;2.80;;
70157;SDS011;57524;48.312;7.938;2022-07-10T08:17:52;6.60;;;3.00;;
70157;SDS011;57524;48.312;7.938;2022-07-10T08:20:20;5.95;;;2.85;;
70157;SDS011;57524;48.312;7.938;2022-07-10T08:22:48;7.63;;;3.03;;
70157;SDS011;57524;48.312;7.938;2022-07-10T08:25:16;6.43;;;3.10;;
70157;SDS011;57524;48.312;7.938;2022-07-10T08:27:43;6.88;;;2.88;;
70157;SDS011;57524;48.312;7.938;2022-07-10T08:30:09;5.85;;;2.70;;
70157;SDS011;57524;48.312;7.938;2022-07-10T08:32:37;6.85;;;3.00;;
70157;SDS011;57524;48.312;7.938;2022-07-10T08:35:04;7.32;;;3.30;;
70157;SDS011;57524;48.312;7.938;2022-07-10T08:37:36;6.43;;;3.10;;
70157;SDS011;57524;48.312;7.938;2022-07-10T08:40:06;5.68;;;2.80;;
70157;SDS011;57524;48.312;7.938;2022-07-10T08:42:34;5.72;;;3.25;;
70157;SDS011;57524;48.312;7.938;2022-07-10T08:45:01;7.20;;;3.20;;
70157;SDS011;57524;48.312;7.938;2022-07-10T08:47:28;6.22;;;3.45;;
70157;SDS011;57524;48.312;7.938;2022-07-10T08:49:56;6.90;;;3.10;;
70157;SDS011;57524;48.312;7.938;2022-07-10T08:52:25;5.97;;;3.25;;
70157;SDS011;57524;48.312;7.938;2022-07-10T08:54:53;5.13;;;3.03;;
70157;SDS011;57524;48.312;7.938;2022-07-10T08:57:21;5.75;;;3.08;;
70157;SDS011;57524;48.312;7.938;2022-07-10T08:59:49;7.47;;;3.50;;
70157;SDS011;57524;48.312;7.938;2022-07-10T09:02:16;6.27;;;3.40;;
70157;SDS011;57524;48.312;7.938;2022-07-10T09:04:42;7.50;;;3.63;;
70157;SDS011;57524;48.312;7.938;2022-07-10T09:07:09;8.02;;;3.70;;
70157;SDS011;57524;48.312;7.938;2022-07-10T09:09:50;6.75;;;3.70;;
70157;SDS011;57524;48.312;7.938;2022-07-10T09:12:18;6.18;;;3.42;;
70157;SDS011;57524;48.312;7.938;2022-07-10T09:14:46;7.20;;;3.60;;
70157;SDS011;57524;48.312;7.938;2022-07-10T09:17:12;7.00;;;3.90;;
70157;SDS011;57524;48.312;7.938;2022-07-10T09:19:39;5.72;;;3.15;;
70157;SDS011;57524;48.312;7.938;2022-07-10T09:22:07;7.32;;;3.60;;
70157;SDS011;57524;48.312;7.938;2022-07-10T09:24:35;7.93;;;3.40;;
70157;SDS011;57524;48.312;7.938;2022-07-10T09:27:03;5.50;;;3.37;;
70157;SDS011;57524;48.312;7.938;2022-07-10T09:29:31;6.88;;;3.25;;
70157;SDS011;57524;48.312;7.938;2022-07-10T09:31:59;5.82;;;3.42;;
70157;SDS011;57524;48.312;7.938;2022-07-10T09:34:36;7.13;;;3.40;;
70157;SDS011;57524;48.312;7.938;2022-07-10T09:37:17;7.38;;;3.47;;
70157;SDS011;57524;48.312;7.938;2022-07-10T09:39:57;8.17;;;3.50;;
70157;SDS011;57524;48.312;7.938;2022-07-10T09:42:25;8.68;;;3.40;;
70157;SDS011;57524;48.312;7.938;2022-07-10T09:45:15;7.85;;;3.60;;
70157;SDS011;57524;48.312;7.938;2022-07-10T09:47:44;6.13;;;3.40;;
70157;SDS011;57524;48.312;7.938;2022-07-10T09:50:20;10.57;;;3.20;;
70157;SDS011;57524;48.312;7.938;2022-07-10T09:52:49;6.07;;;3.17;;
70157;SDS011;57524;48.312;7.938;2022-07-10T09:55:18;6.78;;;3.13;;
70157;SDS011;57524;48.312;7.938;2022-07-10T09:57:48;5.88;;;3.33;;
70157;SDS011;57524;48.312;7.938;2022-07-10T10:00:19;5.03;;;2.70;;
70157;SDS011;57524;48.312;7.938;2022-07-10T10:02:51;7.15;;;3.10;;
70157;SDS011;57524;48.312;7.938;2022-07-10T10:05:25;5.80;;;3.10;;
70157;SDS011;57524;48.312;7.938;2022-07-10T10:07:58;7.40;;;3.05;;
70157;SDS011;57524;48.312;7.938;2022-07-10T10:10:27;5.68;;;3.08;;
70157;SDS011;57524;48.312;7.938;2022-07-10T10:12:58;5.95;;;3.00;;
70157;SDS011;57524;48.312;7.938;2022-07-10T10:15:29;6.05;;;2.90;;
70157;SDS011;57524;48.312;7.938;2022-07-10T10:17:59;7.87;;;2.70;;
70157;SDS011;57524;48.312;7.938;2022-07-10T10:20:29;5.95;;;2.90;;
70157;SDS011;57524;48.312;7.938;2022-07-10T10:23:03;5.82;;;2.95;;
70157;SDS011;57524;48.312;7.938;2022-07-10T10:25:31;6.05;;;3.03;;
70157;SDS011;57524;48.312;7.938;2022-07-10T10:27:59;7.30;;;3.00;;
70157;SDS011;57524;48.312;7.938;2022-07-10T10:30:27;9.03;;;2.90;;
70157;SDS011;57524;48.312;7.938;2022-07-10T10:32:55;4.55;;;2.60;;
70157;SDS011;57524;48.312;7.938;2022-07-10T10:38:12;5.63;;;2.70;;
70157;SDS011;57524;48.312;7.938;2022-07-10T10:40:39;4.70;;;2.60;;
70157;SDS011;57524;48.312;7.938;2022-07-10T10:43:16;8.40;;;2.63;;
70157;SDS011;57524;48.312;7.938;2022-07-10T10:45:44;6.95;;;2.78;;
70157;SDS011;57524;48.312;7.938;2022-07-10T10:48:12;7.78;;;2.65;;
70157;SDS011;57524;48.312;7.938;2022-07-10T10:50:40;6.00;;;2.92;;
70157;SDS011;57524;48.312;7.938;2022-07-10T10:53:16;5.90;;;2.55;;
70157;SDS011;57524;48.312;7.938;2022-07-10T10:58:49;6.22;;;2.55;;
70157;SDS011;57524;48.312;7.938;2022-07-10T11:01:28;5.25;;;2.60;;
70157;SDS011;57524;48.312;7.938;2022-07-10T11:04:13;5.07;;;2.42;;
70157;SDS011;57524;48.312;7.938;2022-07-10T11:06:43;6.03;;;2.53;;
70157;SDS011;57524;48.312;7.938;2022-07-10T11:09:24;5.90;;;2.30;;
70157;SDS011;57524;48.312;7.938;2022-07-10T11:11:58;5.40;;;2.20;;
70157;SDS011;57524;48.312;7.938;2022-07-10T11:14:26;5.18;;;2.70;;
70157;SDS011;57524;48.312;7.938;2022-07-10T11:16:54;5.13;;;2.17;;
70157;SDS011;57524;48.312;7.938;2022-07-10T11:19:21;5.35;;;2.33;;
70157;SDS011;57524;48.312;7.938;2022-07-10T11:21:49;6.27;;;2.20;;
70157;SDS011;57524;48.312;7.938;2022-07-10T11:24:33;6.40;;;2.60;;
70157;SDS011;57524;48.312;7.938;2022-07-10T11:27:09;4.78;;;2.20;;
70157;SDS011;57524;48.312;7.938;2022-07-10T11:29:56;4.78;;;2.20;;
70157;SDS011;57524;48.312;7.938;2022-07-10T11:32:23;6.28;;;2.10;;
70157;SDS011;57524;48.312;7.938;2022-07-10T11:34:50;4.60;;;2.07;;
70157;SDS011;57524;48.312;7.938;2022-07-10T11:37:16;6.13;;;2.47;;
70157;SDS011;57524;48.312;7.938;2022-07-10T11:39:44;7.97;;;2.38;;
70157;SDS011;57524;48.312;7.938;2022-07-10T11:42:11;5.05;;;1.80;;
70157;SDS011;57524;48.312;7.938;2022-07-10T11:44:38;5.03;;;2.20;;
70157;SDS011;57524;48.312;7.938;2022-07-10T11:47:05;5.20;;;1.90;;
70157;SDS011;57524;48.312;7.938;2022-07-10T11:49:32;7.82;;;2.10;;
70157;SDS011;57524;48.312;7.938;2022-07-10T11:52:01;5.13;;;2.45;;
70157;SDS011;57524;48.312;7.938;2022-07-10T11:54:29;4.88;;;1.83;;
70157;SDS011;57524;48.312;7.938;2022-07-10T11:57:03;5.65;;;1.90;;
70157;SDS011;57524;48.312;7.938;2022-07-10T11:59:32;6.07;;;1.97;;
70157;SDS011;57524;48.312;7.938;2022-07-10T12:01:58;5.10;;;1.80;;
70157;SDS011;57524;48.312;7.938;2022-07-10T12:04:25;5.45;;;1.90;;
70157;SDS011;57524;48.312;7.938;2022-07-10T12:06:56;4.38;;;1.70;;
70157;SDS011;57524;48.312;7.938;2022-07-10T12:09:23;4.75;;;1.80;;
70157;SDS011;57524;48.312;7.938;2022-07-10T12:12:01;5.07;;;2.00;;
70157;SDS011;57524;48.312;7.938;2022-07-10T12:14:30;5.28;;;1.75;;
70157;SDS011;57524;48.312;7.938;2022-07-10T12:16:57;4.25;;;1.70;;
70157;SDS011;57524;48.312;7.938;2022-07-10T12:19:26;3.90;;;1.60;;
70157;SDS011;57524;48.312;7.938;2022-07-10T12:21:55;4.97;;;1.60;;
70157;SDS011;57524;48.312;7.938;2022-07-10T12:24:24;5.60;;;1.60;;
70157;SDS011;57524;48.312;7.938;2022-07-10T12:26:52;4.97;;;1.45;;
70157;SDS011;57524;48.312;7.938;2022-07-10T12:29:22;3.80;;;1.42;;
70157;SDS011;57524;48.312;7.938;2022-07-10T12:31:51;5.85;;;1.60;;
70157;SDS011;57524;48.312;7.938;2022-07-10T12:34:19;5.13;;;1.55;;
70157;SDS011;57524;48.312;7.938;2022-07-10T12:36:47;4.17;;;1.27;;
70157;SDS011;57524;48.312;7.938;2022-07-10T12:39:16;4.50;;;1.38;;
70157;SDS011;57524;48.312;7.938;2022-07-10T12:41:53;4.85;;;1.48;;
70157;SDS011;57524;48.312;7.938;2022-07-10T12:44:32;4.15;;;1.20;;
70157;SDS011;57524;48.312;7.938;2022-07-10T12:47:00;5.20;;;1.30;;
70157;SDS011;57524;48.312;7.938;2022-07-10T12:49:27;4.03;;;1.20;;
70157;SDS011;57524;48.312;7.938;2022-07-10T12:51:54;4.30;;;1.30;;
70157;SDS011;57524;48.312;7.938;2022-07-10T12:54:31;4.68;;;1.50;;
70157;SDS011;57524;48.312;7.938;2022-07-10T12:57:02;4.47;;;1.30;;
70157;SDS011;57524;48.312;7.938;2022-07-10T12:59:33;4.13;;;1.20;;
70157;SDS011;57524;48.312;7.938;2022-07-10T13:02:13;3.97;;;1.10;;
70157;SDS011;57524;48.312;7.938;2022-07-10T13:04:51;4.78;;;1.30;;
70157;SDS011;57524;48.312;7.938;2022-07-10T13:07:18;4.32;;;1.10;;
70157;SDS011;57524;48.312;7.938;2022-07-10T13:09:47;4.65;;;1.38;;
70157;SDS011;57524;48.312;7.938;2022-07-10T13:12:15;3.40;;;1.10;;
70157;SDS011;57524;48.312;7.938;2022-07-10T13:14:43;4.47;;;1.03;;
70157;SDS011;57524;48.312;7.938;2022-07-10T13:17:10;4.18;;;1.10;;
70157;SDS011;57524;48.312;7.938;2022-07-10T13:19:36;3.05;;;0.93;;
70157;SDS011;57524;48.312;7.938;2022-07-10T13:22:03;3.28;;;0.90;;
70157;SDS011;57524;48.312;7.938;2022-07-10T13:24:30;5.75;;;1.00;;
70157;SDS011;57524;48.312;7.938;2022-07-10T13:26:57;4.10;;;1.00;;
70157;SDS011;57524;48.312;7.938;2022-07-10T13:29:23;3.38;;;0.90;;
70157;SDS011;57524;48.312;7.938;2022-07-10T13:31:51;3.85;;;0.98;;
70157;SDS011;57524;48.312;7.938;2022-07-10T13:34:18;3.45;;;0.90;;
70157;SDS011;57524;48.312;7.938;2022-07-10T13:36:45;3.58;;;0.88;;
70157;SDS011;57524;48.312;7.938;2022-07-10T13:39:11;4.40;;;0.90;;
70157;SDS011;57524;48.312;7.938;2022-07-10T13:41:38;4.03;;;0.80;;
70157;SDS011;57524;48.312;7.938;2022-07-10T13:44:05;4.20;;;0.90;;
70157;SDS011;57524;48.312;7.938;2022-07-10T13:46:31;3.55;;;0.90;;
70157;SDS011;57524;48.312;7.938;2022-07-10T13:49:00;3.17;;;0.85;;
70157;SDS011;57524;48.312;7.938;2022-07-10T13:51:26;3.53;;;0.80;;
70157;SDS011;57524;48.312;7.938;2022-07-10T13:53:53;3.33;;;0.90;;
70157;SDS011;57524;48.312;7.938;2022-07-10T13:56:20;3.22;;;0.90;;
70157;SDS011;57524;48.312;7.938;2022-07-10T13:58:46;2.63;;;0.80;;
70157;SDS011;57524;48.312;7.938;2022-07-10T14:01:13;2.97;;;0.80;;
70157;SDS011;57524;48.312;7.938;2022-07-10T14:03:40;3.23;;;0.80;;
70157;SDS011;57524;48.312;7.938;2022-07-10T14:06:08;4.72;;;0.90;;
70157;SDS011;57524;48.312;7.938;2022-07-10T14:08:35;4.00;;;1.00;;
70157;SDS011;57524;48.312;7.938;2022-07-10T14:11:02;3.22;;;1.00;;
70157;SDS011;57524;48.312;7.938;2022-07-10T14:13:29;4.00;;;1.30;;
70157;SDS011;57524;48.312;7.938;2022-07-10T14:15:55;4.43;;;1.20;;
70157;SDS011;57524;48.312;7.938;2022-07-10T14:18:22;6.05;;;1.30;;
70157;SDS011;57524;48.312;7.938;2022-07-10T14:21:03;4.32;;;1.20;;
70157;SDS011;57524;48.312;7.938;2022-07-10T14:23:34;3.03;;;0.88;;
70157;SDS011;57524;48.312;7.938;2022-07-10T14:26:02;4.40;;;1.00;;
70157;SDS011;57524;48.312;7.938;2022-07-10T14:28:30;7.00;;;2.23;;
70157;SDS011;57524;48.312;7.938;2022-07-10T14:30:57;4.45;;;1.30;;
70157;SDS011;57524;48.312;7.938;2022-07-10T14:33:25;2.88;;;0.80;;
70157;SDS011;57524;48.312;7.938;2022-07-10T14:35:52;4.28;;;0.98;;
70157;SDS011;57524;48.312;7.938;2022-07-10T14:38:19;3.75;;;1.00;;
70157;SDS011;57524;48.312;7.938;2022-07-10T14:40:47;3.07;;;0.70;;
70157;SDS011;57524;48.312;7.938;2022-07-10T14:43:16;2.90;;;0.60;;
70157;SDS011;57524;48.312;7.938;2022-07-10T14:45:43;4.63;;;0.80;;
70157;SDS011;57524;48.312;7.938;2022-07-10T14:48:09;3.78;;;0.80;;
70157;SDS011;57524;48.312;7.938;2022-07-10T14:50:36;2.92;;;0.80;;
70157;SDS011;57524;48.312;7.938;2022-07-10T14:53:03;3.60;;;0.77;;
70157;SDS011;57524;48.312;7.938;2022-07-10T14:55:31;3.95;;;0.95;;
70157;SDS011;57524;48.312;7.938;2022-07-10T14:57:59;3.40;;;0.70;;
70157;SDS011;57524;48.312;7.938;2022-07-10T15:00:25;3.60;;;0.68;;
70157;SDS011;57524;48.312;7.938;2022-07-10T15:02:52;3.15;;;0.70;;
70157;SDS011;57524;48.312;7.938;2022-07-10T15:05:19;3.03;;;0.77;;
70157;SDS011;57524;48.312;7.938;2022-07-10T15:07:45;3.75;;;0.90;;